Etusivu
METAR-TAF:

METAR-TAF

Lentoasemat :

Jersey,

Leveyspiiri: 49-13N, Pituuspiiri: 002-12W, korkeus merenpinnasta: 84 m

Tämänhetkinen sää

Tämä raportti tehtiin 35 minuuttia sitten, kello 04.50 UTC
Tuuli 6 kn koillisesta, vaihdellen pohjoisen/koillisen ja idän välillä
Lämpötila 6°C
Kosteus 81%
Ilmanpaine 1038 hPa
Näkyvyys 10 km tai enemmän

METAR: EGJJ 190450Z AUTO 05006KT 020V080 9999 FEW021/// SCT026/// 06/03 Q1038

Aika: 05:25 (05:25 UTC)

Sääennuste

Tämä raportti tehtiin 3 tuntia ja 27 minuuttia sitten, kello 01.58 UTC
Ennuste voimassa 19. päivästä klo 03 UTC - 19. päivään klo 12 UTC
Tuuli 6 kn koillisesta
Näkyvyys 10 km tai enemmän
Muutamia pilviä 2500 ft:n korkeudessa

TAF: EGJJ 190158Z 1903/1912 05006KT 9999 FEW025

Säähavainnot ja -ennusteet yli 4000 lentoasemalta (METAR- ja TAF-raportit).

Käytössä olevat sääasemat on merkitty karttaan keltaisilla ja punaisilla pisteillä.

Aseta hiiri pisteen päälle nähdäksesi sääaseman nimen.

Klikkaa sitten nähdäksesi säähavainnot ja -ennusteet.

Kartan vaihtaminen: klikkaa mustalla rastilla varustettuja vihreitä pisteitä, niin voit zoomata sisään; viivalla varustettua vihreää pistettä, niin voit zoomata ulos tai vihreitä nuolia, niin pääset viereisille kartoille.


METAR-TAF: